Latest Weather Observations for Sydney Harbour

IDN60801

Issued at 3:22 am EDT Saturday 19 October 2019 (issued every 10 minutes, with the page automatically refreshed every 10 minutes)

About weather observations | Map of weather stations | Latest weather observations for NSW | Other Formats
Station Details ID: 066196 Name: WEDDING CAKE WEST Lat: -33.84 Lon: 151.26 Height: 6.0 m
Data from the previous 72 hours. | See also: Recent months at Sydney Harbour
Date/Time
EDT
Temp
°C
App
Temp
°C
Dew
Point
°C
Rel
Hum
%
Delta-T
°C
Wind Press
QNH
hPa
Press
MSL
hPa
Rain since
9am
mm
Dir  Spd
km/h
Gust
km/h
Spd
kts
Gust
kts
19/03:00am 15.5 - - - - N 6 9 3 5 - - -
19/02:30am 15.5 - - - - SSE 6 7 3 4 - - -
19/02:00am 15.4 - - - - ESE 9 11 5 6 - - -
19/01:30am 16.0 - - - - NNW 2 6 1 3 - - -
19/01:00am 15.8 - - - - NE 2 11 1 6 - - -
19/12:30am 15.6 - - - - N 6 7 3 4 - - -
19/12:00am 16.0 - - - - N 11 13 6 7 - - -
 
Date/Time
EDT
Temp
°C
App
Temp
°C
Dew
Point
°C
Rel
Hum
%
Delta-T
°C
Wind Press
QNH
hPa
Press
MSL
hPa
Rain since
9am
mm
Dir  Spd
km/h
Gust
km/h
Spd
kts
Gust
kts
18/11:30pm 16.3 - - - - N 7 9 4 5 - - -
18/11:00pm 16.6 - - - - N 9 13 5 7 - - -
18/10:30pm 17.3 - - - - N 19 24 10 13 - - -
18/10:00pm 17.5 - - - - N 22 28 12 15 - - -
18/09:30pm 17.6 - - - - N 22 26 12 14 - - -
18/09:00pm 17.9 - - - - N 24 28 13 15 - - -
18/08:30pm 18.2 - - - - N 24 28 13 15 - - -
18/08:00pm 18.3 - - - - N 28 32 15 17 - - -
18/07:30pm 18.4 - - - - NNE 30 37 16 20 - - -
18/07:00pm 18.5 - - - - N 30 37 16 20 - - -
18/06:30pm 18.7 - - - - NNE 30 37 16 20 - - -
18/06:00pm 18.7 - - - - NNE 32 39 17 21 - - -
18/05:30pm 18.6 - - - - NNE 30 37 16 20 - - -
18/05:00pm 18.7 - - - - NNE 32 39 17 21 - - -
18/04:30pm 18.5 - - - - NNE 28 33 15 18 - - -
18/04:00pm 18.4 - - - - NNE 32 37 17 20 - - -
18/03:30pm 18.2 - - - - NNE 32 39 17 21 - - -
18/03:00pm 18.3 - - - - NE 30 35 16 19 - - -
18/02:30pm 18.2 - - - - NE 28 33 15 18 - - -
18/02:00pm 18.1 - - - - ENE 24 30 13 16 - - -
18/01:30pm 18.1 - - - - NE 24 28 13 15 - - -
18/01:00pm 18.3 - - - - ENE 22 26 12 14 - - -
18/12:30pm 19.6 - - - - ESE 13 17 7 9 - - -
18/12:00pm 19.2 - - - - WNW 6 20 3 11 - - -
18/11:30am 18.6 - - - - W 11 19 6 10 - - -
18/11:00am 18.0 - - - - WSW 11 19 6 10 - - -
18/10:30am 17.3 - - - - WSW 17 24 9 13 - - -
18/10:00am 17.0 - - - - WSW 20 30 11 16 - - -
18/09:30am 16.5 - - - - WSW 22 28 12 15 - - -
18/09:00am 16.0 - - - - WSW 24 33 13 18 - - -
18/08:30am 15.7 - - - - SW 28 35 15 19 - - -
18/08:00am 15.6 - - - - WSW 20 30 11 16 - - -
18/07:30am 15.0 - - - - WSW 20 24 11 13 - - -
18/07:00am 14.9 - - - - W 17 24 9 13 - - -
18/06:30am 14.0 - - - - W 11 13 6 7 - - -
18/06:00am 14.0 - - - - W 13 15 7 8 - - -
18/05:30am 14.3 - - - - W 13 17 7 9 - - -
18/05:00am 14.8 - - - - WNW 20 24 11 13 - - -
18/04:30am 15.0 - - - - NW 17 26 9 14 - - -
18/04:00am 15.2 - - - - WNW 20 26 11 14 - - -
18/03:30am 15.7 - - - - WNW 19 30 10 16 - - -
18/03:00am 16.3 - - - - W 20 32 11 17 - - -
18/02:30am 15.8 - - - - NW 13 15 7 8 - - -
18/02:00am 16.7 - - - - W 20 28 11 15 - - -
18/01:30am 16.8 - - - - W 22 30 12 16 - - -
18/01:00am 17.1 - - - - WSW 17 32 9 17 - - -
18/12:30am 17.2 - - - - W 22 37 12 20 - - -
18/12:00am 17.4 - - - - W 26 41 14 22 - - -
 
Date/Time
EDT
Temp
°C
App
Temp
°C
Dew
Point
°C
Rel
Hum
%
Delta-T
°C
Wind Press
QNH
hPa
Press
MSL
hPa
Rain since
9am
mm
Dir  Spd
km/h
Gust
km/h
Spd
kts
Gust
kts
17/11:30pm 17.6 - - - - WSW 22 30 12 16 - - -
17/11:00pm 18.0 - - - - WSW 24 39 13 21 - - -
17/10:41pm 18.3 - - - - WSW 28 46 15 25 - - -
17/10:30pm 18.4 - - - - WSW 32 46 17 25 - - -
17/10:04pm 18.7 - - - - W 30 48 16 26 - - -
17/10:00pm 18.6 - - - - W 28 39 15 21 - - -
17/09:34pm 19.0 - - - - W 32 52 17 28 - - -
17/09:30pm 19.0 - - - - W 26 37 14 20 - - -
17/09:00pm 19.1 - - - - WSW 28 39 15 21 - - -
17/08:30pm 19.6 - - - - WSW 35 48 19 26 - - -
17/08:20pm 19.7 - - - - WSW 33 52 18 28 - - -
17/08:00pm 20.0 - - - - WSW 37 48 20 26 - - -
17/07:30pm 20.4 - - - - WSW 41 61 22 33 - - -
17/07:00pm 20.9 - - - - W 37 57 20 31 - - -
17/06:33pm 21.2 - - - - WSW 41 67 22 36 - - -
17/06:30pm 21.2 - - - - WSW 41 57 22 31 - - -
17/06:02pm 21.4 - - - - W 41 59 22 32 - - -
17/06:00pm 21.5 - - - - W 43 59 23 32 - - -
17/05:31pm 21.7 - - - - WSW 48 67 26 36 - - -
17/05:30pm 21.7 - - - - WSW 48 63 26 34 - - -
17/05:00pm 22.2 - - - - WSW 35 56 19 30 - - -
17/04:33pm 23.1 - - - - W 46 65 25 35 - - -
17/04:30pm 23.2 - - - - W 48 65 26 35 - - -
17/04:00pm 23.4 - - - - W 48 67 26 36 - - -
17/03:30pm 23.8 - - - - W 54 74 29 40 - - -
17/03:00pm 24.8 - - - - WSW 43 65 23 35 - - -
17/02:38pm 25.7 - - - - W 43 61 23 33 - - -
17/02:30pm 25.8 - - - - W 44 61 24 33 - - -
17/02:00pm 26.2 - - - - W 41 59 22 32 - - -
17/01:30pm 27.3 - - - - WNW 32 54 17 29 - - -
17/01:05pm 26.5 - - - - WSW 32 54 17 29 - - -
17/01:00pm 26.4 - - - - WSW 28 44 15 24 - - -
17/12:30pm 25.5 - - - - WSW 20 28 11 15 - - -
17/12:00pm 24.8 - - - - WSW 22 30 12 16 - - -
17/11:30am 23.7 - - - - WSW 15 24 8 13 - - -
17/11:00am 23.0 - - - - WSW 17 22 9 12 - - -
17/10:30am 21.8 - - - - SW 19 22 10 12 - - -
17/10:00am 20.9 - - - - WSW 22 26 12 14 - - -
17/09:30am 19.9 - - - - SW 17 24 9 13 - - -
17/09:00am 18.8 - - - - WSW 17 19 9 10 - - -
17/08:30am 18.5 - - - - WSW 15 20 8 11 - - -
17/08:00am 18.3 - - - - W 15 19 8 10 - - -
17/07:30am 18.1 - - - - W 7 7 4 4 - - -
17/07:00am 17.8 - - - - CALM 0 0 0 0 - - -
17/06:30am 17.8 - - - - WSW 6 7 3 4 - - -
17/06:00am 18.0 - - - - SSW 7 9 4 5 - - -
17/05:30am 18.0 - - - - WNW 6 9 3 5 - - -
17/05:00am 18.2 - - - - SW 2 6 1 3 - - -
17/04:30am 18.2 - - - - S 9 11 5 6 - - -
17/04:00am 18.6 - - - - S 7 9 4 5 - - -
17/03:30am 18.6 - - - - SW 11 15 6 8 - - -
17/03:00am 18.6 - - - - CALM 0 0 0 0 - - -
17/02:30am 18.7 - - - - E 6 9 3 5 - - -
17/02:00am 18.7 - - - - SE 9 13 5 7 - - -
17/01:30am 18.7 - - - - S 13 15 7 8 - - -
17/01:00am 18.9 - - - - CALM 0 4 0 2 - - -
17/12:30am 19.0 - - - - NE 15 20 8 11 - - -
17/12:00am 19.2 - - - - E 11 17 6 9 - - -
 
Date/Time
EDT
Temp
°C
App
Temp
°C
Dew
Point
°C
Rel
Hum
%
Delta-T
°C
Wind Press
QNH
hPa
Press
MSL
hPa
Rain since
9am
mm
Dir  Spd
km/h
Gust
km/h
Spd
kts
Gust
kts
16/11:30pm 19.2 - - - - N 15 19 8 10 - - -
16/11:00pm 19.3 - - - - NNE 22 28 12 15 - - -
16/10:30pm 19.3 - - - - NNE 30 35 16 19 - - -
16/10:00pm 19.2 - - - - NNE 28 33 15 18 - - -
16/09:30pm 19.2 - - - - N 20 24 11 13 - - -
16/09:00pm 19.1 - - - - N 20 26 11 14 - - -
16/08:30pm 19.2 - - - - NE 11 13 6 7 - - -
16/08:00pm 19.4 - - - - N 19 22 10 12 - - -
16/07:30pm 19.1 - - - - NNE 24 28 13 15 - - -
16/07:00pm 19.0 - - - - NNE 22 24 12 13 - - -
16/06:30pm 18.9 - - - - NNE 11 13 6 7 - - -
16/06:00pm 18.7 - - - - ENE 11 13 6 7 - - -
16/05:30pm 19.4 - - - - NE 11 13 6 7 - - -
16/05:00pm 18.9 - - - - NE 9 11 5 6 - - -
16/04:30pm 19.2 - - - - ENE 6 7 3 4 - - -
16/04:00pm 19.2 - - - - S 13 15 7 8 - - -
16/03:30pm 18.8 - - - - SE 13 17 7 9 - - -
16/03:00pm 18.9 - - - - SE 17 19 9 10 - - -
16/02:30pm 19.2 - - - - ESE 13 17 7 9 - - -
16/02:00pm 19.8 - - - - E 9 11 5 6 - - -
16/01:30pm 19.0 - - - - SE 15 20 8 11 - - -
16/01:00pm 19.0 - - - - SE 20 24 11 13 - - -
16/12:30pm 19.5 - - - - SSE 13 19 7 10 - - -
16/12:00pm 19.0 - - - - SE 17 20 9 11 - - -
16/11:30am 19.5 - - - - SSE 11 17 6 9 - - -
16/11:00am 18.6 - - - - S 13 17 7 9 - - -
16/10:30am 18.4 - - - - S 15 17 8 9 - - -
16/10:00am 18.1 - - - - S 19 24 10 13 - - -
16/09:30am 18.2 - - - - SSW 17 22 9 12 - - -
16/09:00am 17.9 - - - - S 22 28 12 15 - - -
16/08:30am 17.9 - - - - S 28 33 15 18 - - -
16/08:00am 17.7 - - - - SSW 28 39 15 21 - - -
16/07:30am 17.6 - - - - S 26 33 14 18 - - -
16/07:00am 17.6 - - - - S 28 39 15 21 - - -
16/06:30am 17.7 - - - - S 28 37 15 20 - - -
16/06:00am 18.1 - - - - S 24 33 13 18 - - -
16/05:30am 18.4 - - - - SSW 28 35 15 19 - - -
16/05:00am 18.6 - - - - SSW 26 33 14 18 - - -
16/04:30am 18.6 - - - - SSW 26 33 14 18 - - -
16/04:00am 18.4 - - - - SW 24 32 13 17 - - -
16/03:30am 17.7 - - - - WSW 13 17 7 9 - - -

Other formats

Comma delimited format used in spreadsheet applications
http://www.bom.gov.au/fwo/IDN60801/IDN60801.95766.axf

JavaScript Object Notation format (JSON) in row-major order
http://www.bom.gov.au/fwo/IDN60801/IDN60801.95766.json

Data quality

Most of these data are generated automatically and are frequently updated. Quality checks on data are not normally performed. It is possible for incorrect values to appear. Refer to information at About Latest Weather Observations and please check the disclaimer before using these data.